createdAt,value
2022-08-31T00:00:49.689Z,1004.46
2022-08-31T00:01:49.701Z,1004.43
2022-08-31T00:02:49.661Z,1004.41
2022-08-31T00:03:49.680Z,1004.45
2022-08-31T00:04:49.718Z,1004.43
2022-08-31T00:05:49.632Z,1004.43
2022-08-31T00:06:49.704Z,1004.42
2022-08-31T00:07:49.611Z,1004.41
2022-08-31T00:08:49.612Z,1004.40
2022-08-31T00:09:49.592Z,1004.34
2022-08-31T00:10:49.583Z,1004.33
2022-08-31T00:11:49.564Z,1004.32
2022-08-31T00:12:49.554Z,1004.36
2022-08-31T00:13:49.554Z,1004.35
2022-08-31T00:14:49.557Z,1004.34
2022-08-31T00:15:49.515Z,1004.41
2022-08-31T00:16:49.572Z,1004.40
2022-08-31T00:17:49.502Z,1004.40
2022-08-31T00:18:49.565Z,1004.39
2022-08-31T00:19:49.477Z,1004.38
2022-08-31T00:20:49.468Z,1004.42
2022-08-31T00:21:49.467Z,1004.37
2022-08-31T00:22:49.466Z,1004.39
2022-08-31T00:23:49.438Z,1004.40
2022-08-31T00:24:49.429Z,1004.36
2022-08-31T00:25:49.425Z,1004.37
2022-08-31T00:26:49.407Z,1004.38
2022-08-31T00:27:49.398Z,1004.38
2022-08-31T00:28:49.379Z,1004.39
2022-08-31T00:29:49.360Z,1004.41
2022-08-31T00:30:49.367Z,1004.39
2022-08-31T00:31:49.397Z,1004.39
2022-08-31T00:32:49.374Z,1004.40
2022-08-31T00:33:49.323Z,1004.42
2022-08-31T00:34:49.311Z,1004.46
2022-08-31T00:35:49.313Z,1004.45
2022-08-31T00:36:49.291Z,1004.46
2022-08-31T00:37:49.294Z,1004.48
2022-08-31T00:38:49.287Z,1004.51
2022-08-31T00:39:49.253Z,1004.52
2022-08-31T00:40:49.295Z,1004.49
2022-08-31T00:41:49.231Z,1004.52
2022-08-31T00:42:49.242Z,1004.52
2022-08-31T00:43:49.204Z,1004.52
2022-08-31T00:44:49.203Z,1004.51
2022-08-31T00:45:49.244Z,1004.47
2022-08-31T00:46:49.186Z,1004.48
2022-08-31T00:47:49.189Z,1004.51
2022-08-31T00:48:49.157Z,1004.52
2022-08-31T00:49:49.367Z,1004.54
2022-08-31T00:50:49.138Z,1004.52
2022-08-31T00:51:49.129Z,1004.51
2022-08-31T00:52:49.129Z,1004.50
2022-08-31T00:53:50.867Z,1004.53
2022-08-31T00:54:49.098Z,1004.47
2022-08-31T00:55:49.080Z,1004.45
2022-08-31T00:56:49.099Z,1004.44
2022-08-31T00:57:49.071Z,1004.47
2022-08-31T00:58:54.558Z,1004.51
2022-08-31T00:59:50.040Z,1004.46
2022-08-31T01:00:49.070Z,1004.48
2022-08-31T01:01:49.068Z,1004.48
2022-08-31T01:02:49.013Z,1004.51
2022-08-31T01:03:48.982Z,1004.51
2022-08-31T01:04:48.982Z,1004.48
2022-08-31T01:05:48.966Z,1004.49
2022-08-31T01:06:48.975Z,1004.48
2022-08-31T01:07:48.963Z,1004.53
2022-08-31T01:08:48.933Z,1004.53
2022-08-31T01:09:55.903Z,1004.47
2022-08-31T01:10:49.904Z,1004.53
2022-08-31T01:11:48.903Z,1004.49
2022-08-31T01:12:48.905Z,1004.50
2022-08-31T01:13:48.946Z,1004.47
2022-08-31T01:14:48.870Z,1004.48
2022-08-31T01:15:48.856Z,1004.48
2022-08-31T01:16:49.893Z,1004.47
2022-08-31T01:17:48.837Z,1004.50
2022-08-31T01:18:48.827Z,1004.53
2022-08-31T01:19:48.808Z,1004.54
2022-08-31T01:20:49.432Z,1004.53
2022-08-31T01:21:48.799Z,1004.51
2022-08-31T01:22:48.776Z,1004.57
2022-08-31T01:23:48.757Z,1004.53
2022-08-31T01:24:48.745Z,1004.53
2022-08-31T01:25:48.727Z,1004.53
2022-08-31T01:26:49.781Z,1004.52
2022-08-31T01:27:49.714Z,1004.50
2022-08-31T01:28:48.700Z,1004.49
2022-08-31T01:29:48.678Z,1004.48
2022-08-31T01:30:48.701Z,1004.48
2022-08-31T01:31:48.778Z,1004.51
2022-08-31T01:32:48.677Z,1004.48
2022-08-31T01:33:48.654Z,1004.47
2022-08-31T01:34:48.651Z,1004.45
2022-08-31T01:35:48.623Z,1004.46
2022-08-31T01:36:48.615Z,1004.43
2022-08-31T01:37:48.630Z,1004.43
2022-08-31T01:38:51.105Z,1004.47
2022-08-31T01:39:48.587Z,1004.42
2022-08-31T01:40:48.643Z,1004.41
2022-08-31T01:41:48.585Z,1004.43
2022-08-31T01:42:48.556Z,1004.43
2022-08-31T01:43:48.546Z,1004.39
2022-08-31T01:44:48.527Z,1004.42
2022-08-31T01:45:48.516Z,1004.41
2022-08-31T01:46:48.643Z,1004.43
2022-08-31T01:47:48.504Z,1004.42
2022-08-31T01:48:48.480Z,1004.43
2022-08-31T01:49:49.288Z,1004.45
2022-08-31T01:50:48.458Z,1004.47
2022-08-31T01:51:48.468Z,1004.41
2022-08-31T01:52:48.458Z,1004.43
2022-08-31T01:53:48.710Z,1004.44
2022-08-31T01:54:48.421Z,1004.43
2022-08-31T01:55:48.410Z,1004.44
2022-08-31T01:56:48.408Z,1004.43
2022-08-31T01:57:48.389Z,1004.40
2022-08-31T01:58:48.372Z,1004.42
2022-08-31T01:59:48.372Z,1004.40
2022-08-31T02:00:48.420Z,1004.41
2022-08-31T02:01:48.435Z,1004.39
2022-08-31T02:02:48.385Z,1004.41
2022-08-31T02:03:48.322Z,1004.41
2022-08-31T02:04:48.314Z,1004.38
2022-08-31T02:05:48.294Z,1004.42
2022-08-31T02:06:48.307Z,1004.40
2022-08-31T02:07:48.277Z,1004.40
2022-08-31T02:08:48.275Z,1004.39
2022-08-31T02:09:48.257Z,1004.40
2022-08-31T02:12:05.882Z,1004.38
2022-08-31T02:13:05.852Z,1004.42
2022-08-31T02:14:05.859Z,1004.41
2022-08-31T02:15:05.869Z,1004.47
2022-08-31T02:16:05.880Z,1004.44
2022-08-31T02:17:05.885Z,1004.44
2022-08-31T02:18:05.811Z,1004.41
2022-08-31T02:19:05.771Z,1004.43
2022-08-31T02:20:05.793Z,1004.44
2022-08-31T02:21:05.741Z,1004.43
2022-08-31T02:22:05.845Z,1004.41
2022-08-31T02:23:05.733Z,1004.42
2022-08-31T02:24:05.692Z,1004.44
2022-08-31T02:25:05.703Z,1004.40
2022-08-31T02:26:05.694Z,1004.41
2022-08-31T02:27:05.696Z,1004.42
2022-08-31T02:28:05.664Z,1004.41
2022-08-31T02:29:05.654Z,1004.43
2022-08-31T02:30:05.615Z,1004.39
2022-08-31T02:31:05.728Z,1004.38
2022-08-31T02:32:05.620Z,1004.37
2022-08-31T02:33:05.605Z,1004.41
2022-08-31T02:34:05.606Z,1004.41
2022-08-31T02:35:05.588Z,1004.37
2022-08-31T02:36:05.578Z,1004.40
2022-08-31T02:37:05.575Z,1004.37
2022-08-31T02:38:06.549Z,1004.41
2022-08-31T02:39:06.019Z,1004.40
2022-08-31T02:40:05.552Z,1004.41
2022-08-31T02:41:05.521Z,1004.44
2022-08-31T02:42:05.522Z,1004.39
2022-08-31T02:43:05.490Z,1004.43
2022-08-31T02:44:05.498Z,1004.45
2022-08-31T02:45:05.460Z,1004.46
2022-08-31T02:46:05.524Z,1004.44
2022-08-31T02:47:05.462Z,1004.45
2022-08-31T02:48:05.420Z,1004.42
2022-08-31T02:49:05.402Z,1004.38
2022-08-31T02:50:05.402Z,1004.38
2022-08-31T02:51:05.422Z,1004.41
2022-08-31T02:52:05.410Z,1004.34
2022-08-31T02:53:05.373Z,1004.39
2022-08-31T02:54:05.396Z,1004.38
2022-08-31T02:55:05.393Z,1004.40
2022-08-31T02:56:05.374Z,1004.38
2022-08-31T02:57:05.358Z,1004.37
2022-08-31T02:58:05.327Z,1004.37
2022-08-31T02:59:05.349Z,1004.37
2022-08-31T03:00:05.351Z,1004.34
2022-08-31T03:01:05.357Z,1004.36
2022-08-31T03:02:05.354Z,1004.34
2022-08-31T03:03:05.426Z,1004.29
2022-08-31T03:04:05.285Z,1004.25
2022-08-31T03:05:05.287Z,1004.26
2022-08-31T03:06:05.273Z,1004.28
2022-08-31T03:07:05.338Z,1004.27
2022-08-31T03:08:05.240Z,1004.29
2022-08-31T03:09:05.209Z,1004.30
2022-08-31T03:10:05.183Z,1004.33
2022-08-31T03:11:05.222Z,1004.35
2022-08-31T03:12:05.150Z,1004.33
2022-08-31T03:13:05.201Z,1004.34
2022-08-31T03:14:05.116Z,1004.31
2022-08-31T03:15:05.153Z,1004.33
2022-08-31T03:16:05.220Z,1004.35
2022-08-31T03:17:05.177Z,1004.32
2022-08-31T03:18:07.174Z,1004.30
2022-08-31T03:19:05.122Z,1004.31
2022-08-31T03:20:05.117Z,1004.27
2022-08-31T03:21:05.143Z,1004.27
2022-08-31T03:22:05.043Z,1004.22
2022-08-31T03:23:05.054Z,1004.20
2022-08-31T03:24:05.047Z,1004.19
2022-08-31T03:25:05.068Z,1004.15
2022-08-31T03:26:05.004Z,1004.13
2022-08-31T03:27:04.998Z,1004.15
2022-08-31T03:28:05.020Z,1004.15
2022-08-31T03:29:04.952Z,1004.16
2022-08-31T03:30:05.008Z,1004.14
2022-08-31T03:31:05.004Z,1004.15
2022-08-31T03:32:04.947Z,1004.14
2022-08-31T03:33:04.979Z,1004.13
2022-08-31T03:34:04.947Z,1004.12
2022-08-31T03:35:04.928Z,1004.20
2022-08-31T03:36:04.919Z,1004.19
2022-08-31T03:37:04.874Z,1004.23
2022-08-31T03:38:04.883Z,1004.28
2022-08-31T03:39:04.863Z,1004.27
2022-08-31T03:40:04.853Z,1004.32
2022-08-31T03:41:04.913Z,1004.35
2022-08-31T03:42:04.891Z,1004.38
2022-08-31T03:43:04.824Z,1004.38
2022-08-31T03:44:04.816Z,1004.39
2022-08-31T03:45:04.813Z,1004.35
2022-08-31T03:46:11.699Z,1004.42
2022-08-31T03:47:05.796Z,1004.41
2022-08-31T03:48:06.905Z,1004.36
2022-08-31T03:49:05.757Z,1004.37
2022-08-31T03:50:04.715Z,1004.34
2022-08-31T03:51:04.726Z,1004.38
2022-08-31T03:52:04.683Z,1004.39
2022-08-31T03:53:04.666Z,1004.40
2022-08-31T03:54:04.694Z,1004.38
2022-08-31T03:55:04.646Z,1004.39
2022-08-31T03:56:04.692Z,1004.41
2022-08-31T03:57:04.628Z,1004.35
2022-08-31T03:58:04.609Z,1004.37
2022-08-31T03:59:04.609Z,1004.40
2022-08-31T04:00:04.592Z,1004.38
2022-08-31T04:01:04.698Z,1004.39
2022-08-31T04:02:04.599Z,1004.46
2022-08-31T04:03:04.636Z,1004.41
2022-08-31T04:04:04.561Z,1004.46
2022-08-31T04:05:04.571Z,1004.45
2022-08-31T04:06:04.581Z,1004.48
2022-08-31T04:07:04.563Z,1004.43
2022-08-31T04:08:04.544Z,1004.44
2022-08-31T04:09:04.507Z,1004.44
2022-08-31T04:10:04.516Z,1004.50
2022-08-31T04:11:04.527Z,1004.51
2022-08-31T04:12:04.446Z,1004.51
2022-08-31T04:13:04.736Z,1004.54
2022-08-31T04:14:04.433Z,1004.53
2022-08-31T04:15:04.435Z,1004.54
2022-08-31T04:16:04.521Z,1004.55
2022-08-31T04:17:04.415Z,1004.57
2022-08-31T04:18:04.384Z,1004.58
2022-08-31T04:19:04.414Z,1004.59
2022-08-31T04:20:04.373Z,1004.58
2022-08-31T04:21:04.431Z,1004.55
2022-08-31T04:22:04.346Z,1004.58
2022-08-31T04:23:04.366Z,1004.54
2022-08-31T04:24:04.384Z,1004.54
2022-08-31T04:25:04.344Z,1004.55
2022-08-31T04:26:04.376Z,1004.55
2022-08-31T04:27:04.307Z,1004.54
2022-08-31T04:28:04.288Z,1004.54
2022-08-31T04:29:04.298Z,1004.55
2022-08-31T04:30:04.250Z,1004.52
2022-08-31T04:31:04.337Z,1004.49
2022-08-31T04:32:04.249Z,1004.51
2022-08-31T04:33:04.240Z,1004.53
2022-08-31T04:34:04.272Z,1004.53
2022-08-31T04:35:04.244Z,1004.56
2022-08-31T04:36:04.236Z,1004.56
2022-08-31T04:37:04.213Z,1004.54
2022-08-31T04:38:04.195Z,1004.53
2022-08-31T04:39:04.166Z,1004.49
2022-08-31T04:40:04.226Z,1004.52
2022-08-31T04:41:04.190Z,1004.51
2022-08-31T04:42:04.135Z,1004.51
2022-08-31T04:43:04.105Z,1004.51
2022-08-31T04:44:04.116Z,1004.52
2022-08-31T04:45:04.150Z,1004.56
2022-08-31T04:46:04.108Z,1004.54
2022-08-31T04:47:04.057Z,1004.53
2022-08-31T04:48:04.071Z,1004.55
2022-08-31T04:49:04.039Z,1004.56
2022-08-31T04:50:04.038Z,1004.52
2022-08-31T04:51:04.059Z,1004.54
2022-08-31T04:52:04.017Z,1004.57
2022-08-31T04:53:04.195Z,1004.58
2022-08-31T04:54:04.039Z,1004.53
2022-08-31T04:55:03.973Z,1004.51
2022-08-31T04:56:03.999Z,1004.52
2022-08-31T04:57:03.982Z,1004.51
2022-08-31T04:58:03.942Z,1004.51
2022-08-31T04:59:03.993Z,1004.54
2022-08-31T05:00:03.905Z,1004.60
2022-08-31T05:01:04.018Z,1004.62
2022-08-31T05:02:04.182Z,1004.62
2022-08-31T05:03:03.941Z,1004.66
2022-08-31T05:04:03.876Z,1004.68
2022-08-31T05:05:03.907Z,1004.68
2022-08-31T05:06:03.897Z,1004.68
2022-08-31T05:07:03.894Z,1004.68
2022-08-31T05:08:03.855Z,1004.67
2022-08-31T05:09:03.855Z,1004.67
2022-08-31T05:10:03.860Z,1004.67
2022-08-31T05:11:03.835Z,1004.68
2022-08-31T05:12:03.809Z,1004.67
2022-08-31T05:13:03.786Z,1004.66
2022-08-31T05:14:03.879Z,1004.68
2022-08-31T05:15:03.799Z,1004.70
2022-08-31T05:16:03.832Z,1004.66
2022-08-31T05:17:03.793Z,1004.70
2022-08-31T05:18:03.779Z,1004.71
2022-08-31T05:19:03.745Z,1004.69
2022-08-31T05:20:03.791Z,1004.70
2022-08-31T05:21:03.785Z,1004.70
2022-08-31T05:22:03.702Z,1004.74
2022-08-31T05:23:03.711Z,1004.76
2022-08-31T05:24:03.705Z,1004.79
2022-08-31T05:25:04.063Z,1004.80
2022-08-31T05:26:03.685Z,1004.83
2022-08-31T05:27:03.644Z,1004.86
2022-08-31T05:28:03.603Z,1004.85
2022-08-31T05:29:03.663Z,1004.87
2022-08-31T05:30:03.677Z,1004.86
2022-08-31T05:31:03.668Z,1004.91
2022-08-31T05:32:03.591Z,1004.86
2022-08-31T05:33:03.592Z,1004.87
2022-08-31T05:34:03.585Z,1004.89
2022-08-31T05:35:03.551Z,1004.88
2022-08-31T05:36:03.568Z,1004.89
2022-08-31T05:37:03.520Z,1004.91
2022-08-31T05:38:03.479Z,1004.91
2022-08-31T05:39:03.490Z,1004.95
2022-08-31T05:40:03.541Z,1004.92
2022-08-31T05:41:03.492Z,1004.99
2022-08-31T05:42:03.440Z,1004.96
2022-08-31T05:43:03.476Z,1004.96
2022-08-31T05:44:03.461Z,1004.96
2022-08-31T05:45:03.422Z,1004.99
2022-08-31T05:46:07.931Z,1005.04
2022-08-31T05:47:04.443Z,1005.03
2022-08-31T05:48:03.412Z,1005.07
2022-08-31T05:49:03.437Z,1005.06
2022-08-31T05:50:03.383Z,1005.09
2022-08-31T05:51:04.375Z,1005.08
2022-08-31T05:52:03.361Z,1005.08
2022-08-31T05:53:03.354Z,1005.15
2022-08-31T05:54:03.313Z,1005.13
2022-08-31T05:55:03.325Z,1005.09
2022-08-31T05:56:03.333Z,1005.16
2022-08-31T05:57:03.297Z,1005.10
2022-08-31T05:58:03.334Z,1005.11
2022-08-31T05:59:03.325Z,1005.08
2022-08-31T06:00:03.276Z,1005.04
2022-08-31T06:01:03.308Z,1005.10
2022-08-31T06:02:03.522Z,1005.04
2022-08-31T06:03:03.265Z,1005.06
2022-08-31T06:04:03.236Z,1005.10
2022-08-31T06:05:03.395Z,1005.10
2022-08-31T06:06:03.254Z,1005.15
2022-08-31T06:07:03.198Z,1005.16
2022-08-31T06:08:03.184Z,1005.18
2022-08-31T06:09:03.185Z,1005.21
2022-08-31T06:10:03.151Z,1005.24
2022-08-31T06:11:03.164Z,1005.28
2022-08-31T06:12:03.142Z,1005.28
2022-08-31T06:13:03.133Z,1005.27
2022-08-31T06:14:03.161Z,1005.26
2022-08-31T06:15:03.103Z,1005.27
2022-08-31T06:16:03.197Z,1005.25
2022-08-31T06:17:03.075Z,1005.25
2022-08-31T06:18:03.077Z,1005.24
2022-08-31T06:19:03.092Z,1005.28
2022-08-31T06:20:03.025Z,1005.30
2022-08-31T06:21:03.080Z,1005.31
2022-08-31T06:22:03.035Z,1005.33
2022-08-31T06:23:03.077Z,1005.37
2022-08-31T06:24:03.030Z,1005.35
2022-08-31T06:25:03.198Z,1005.35
2022-08-31T06:26:03.010Z,1005.36
2022-08-31T06:27:03.146Z,1005.35
2022-08-31T06:28:02.959Z,1005.36
2022-08-31T06:29:02.928Z,1005.36
2022-08-31T06:30:03.754Z,1005.35
2022-08-31T06:31:02.982Z,1005.33
2022-08-31T06:32:02.871Z,1005.34
2022-08-31T06:33:02.893Z,1005.35
2022-08-31T06:34:02.857Z,1005.30
2022-08-31T06:35:02.988Z,1005.34
2022-08-31T06:36:03.576Z,1005.28
2022-08-31T06:37:02.823Z,1005.33
2022-08-31T06:38:02.822Z,1005.40
2022-08-31T06:39:02.786Z,1005.37
2022-08-31T06:40:02.827Z,1005.40
2022-08-31T06:41:04.074Z,1005.43
2022-08-31T06:42:02.751Z,1005.43
2022-08-31T06:43:02.767Z,1005.43
2022-08-31T06:44:02.747Z,1005.41
2022-08-31T06:45:02.705Z,1005.45
2022-08-31T06:46:02.758Z,1005.50
2022-08-31T06:47:02.717Z,1005.48
2022-08-31T06:48:03.476Z,1005.49
2022-08-31T06:49:02.687Z,1005.48
2022-08-31T06:50:02.708Z,1005.50
2022-08-31T06:51:02.668Z,1005.46
2022-08-31T06:52:02.648Z,1005.50
2022-08-31T06:53:02.651Z,1005.49
2022-08-31T06:54:21.446Z,1005.50
2022-08-31T06:55:03.604Z,1005.52
2022-08-31T06:56:02.601Z,1005.49
2022-08-31T06:57:02.662Z,1005.53
2022-08-31T06:58:02.594Z,1005.51
2022-08-31T06:59:02.593Z,1005.53
2022-08-31T07:00:02.636Z,1005.57
2022-08-31T07:01:02.650Z,1005.57
2022-08-31T07:02:02.657Z,1005.56
2022-08-31T07:03:02.609Z,1005.59
2022-08-31T07:04:02.532Z,1005.59
2022-08-31T07:05:02.535Z,1005.55
2022-08-31T07:06:02.543Z,1005.58
2022-08-31T07:07:02.515Z,1005.55
2022-08-31T07:08:02.449Z,1005.54
2022-08-31T07:09:02.456Z,1005.53
2022-08-31T07:10:02.417Z,1005.56
2022-08-31T07:11:02.703Z,1005.52
2022-08-31T07:12:02.406Z,1005.53
2022-08-31T07:13:02.408Z,1005.53
2022-08-31T07:14:02.386Z,1005.52
2022-08-31T07:15:02.413Z,1005.54
2022-08-31T07:16:02.431Z,1005.56
2022-08-31T07:17:02.348Z,1005.58
2022-08-31T07:18:02.333Z,1005.59
2022-08-31T07:19:02.369Z,1005.64
2022-08-31T07:20:02.323Z,1005.66
2022-08-31T07:21:02.331Z,1005.65
2022-08-31T07:22:02.312Z,1005.65
2022-08-31T07:23:02.281Z,1005.67
2022-08-31T07:24:02.270Z,1005.67
2022-08-31T07:25:02.250Z,1005.63
2022-08-31T07:26:02.262Z,1005.65
2022-08-31T07:27:02.263Z,1005.64
2022-08-31T07:28:02.264Z,1005.68
2022-08-31T07:29:02.227Z,1005.67
2022-08-31T07:30:02.204Z,1005.66
2022-08-31T07:31:02.290Z,1005.67
2022-08-31T07:32:02.215Z,1005.67
2022-08-31T07:33:02.187Z,1005.67
2022-08-31T07:34:02.188Z,1005.66
2022-08-31T07:35:02.147Z,1005.70
2022-08-31T07:36:02.202Z,1005.72
2022-08-31T07:37:02.145Z,1005.71
2022-08-31T07:38:02.141Z,1005.72
2022-08-31T07:39:02.234Z,1005.75
2022-08-31T07:40:06.781Z,1005.76
2022-08-31T07:41:03.161Z,1005.78
2022-08-31T07:42:02.076Z,1005.71
2022-08-31T07:43:02.073Z,1005.73
2022-08-31T07:44:02.060Z,1005.72
2022-08-31T07:45:02.069Z,1005.67
2022-08-31T07:46:02.090Z,1005.68
2022-08-31T07:47:02.045Z,1005.65
2022-08-31T07:48:02.048Z,1005.68
2022-08-31T07:49:02.043Z,1005.64
2022-08-31T07:50:02.035Z,1005.67
2022-08-31T07:51:02.018Z,1005.67
2022-08-31T07:52:01.961Z,1005.69
2022-08-31T07:53:01.944Z,1005.69
2022-08-31T07:54:01.924Z,1005.75
2022-08-31T07:55:01.939Z,1005.74
2022-08-31T07:56:01.956Z,1005.73
2022-08-31T07:57:02.000Z,1005.78
2022-08-31T07:58:01.881Z,1005.79
2022-08-31T07:59:01.869Z,1005.76
2022-08-31T08:00:01.903Z,1005.72
2022-08-31T08:01:01.877Z,1005.72
2022-08-31T08:02:01.957Z,1005.75
2022-08-31T08:03:01.905Z,1005.78
2022-08-31T08:04:01.848Z,1005.77
2022-08-31T08:05:01.868Z,1005.74
2022-08-31T08:06:01.866Z,1005.80
2022-08-31T08:07:01.823Z,1005.82
2022-08-31T08:08:01.821Z,1005.80
2022-08-31T08:09:21.443Z,1005.82
2022-08-31T08:10:02.847Z,1005.83
2022-08-31T08:11:01.749Z,1005.79
2022-08-31T08:12:01.760Z,1005.82
2022-08-31T08:13:01.761Z,1005.85
2022-08-31T08:14:05.243Z,1005.81
2022-08-31T08:15:02.707Z,1005.82
2022-08-31T08:16:01.784Z,1005.81
2022-08-31T08:17:01.708Z,1005.82
2022-08-31T08:18:01.690Z,1005.84
2022-08-31T08:19:01.654Z,1005.81
2022-08-31T08:20:01.663Z,1005.83
2022-08-31T08:21:01.662Z,1005.79
2022-08-31T08:22:01.697Z,1005.83
2022-08-31T08:23:01.655Z,1005.80
2022-08-31T08:24:01.666Z,1005.83
2022-08-31T08:25:01.623Z,1005.84
2022-08-31T08:26:01.742Z,1005.83
2022-08-31T08:27:01.594Z,1005.86
2022-08-31T08:28:08.812Z,1005.84
2022-08-31T08:29:02.543Z,1005.84
2022-08-31T08:30:01.598Z,1005.80
2022-08-31T08:31:01.713Z,1005.79
2022-08-31T08:32:01.591Z,1005.82
2022-08-31T08:33:01.556Z,1005.83
2022-08-31T08:34:01.538Z,1005.83
2022-08-31T08:35:01.545Z,1005.81
2022-08-31T08:36:01.612Z,1005.83
2022-08-31T08:37:01.442Z,1005.82
2022-08-31T08:38:05.703Z,1005.83
2022-08-31T08:39:02.463Z,1005.85
2022-08-31T08:40:01.658Z,1005.86
2022-08-31T08:41:01.452Z,1005.87
2022-08-31T08:42:01.438Z,1005.88
2022-08-31T08:43:01.433Z,1005.93
2022-08-31T08:44:01.501Z,1005.90
2022-08-31T08:45:01.413Z,1005.87
2022-08-31T08:46:15.235Z,1005.92
2022-08-31T08:47:02.347Z,1005.91
2022-08-31T08:48:01.363Z,1005.91
2022-08-31T08:49:01.354Z,1005.91
2022-08-31T08:50:01.383Z,1005.91
2022-08-31T08:51:01.295Z,1005.94
2022-08-31T08:52:01.293Z,1005.95
2022-08-31T08:53:01.316Z,1005.90
2022-08-31T08:54:01.244Z,1005.91
2022-08-31T08:55:01.307Z,1005.89
2022-08-31T08:56:17.301Z,1005.91
2022-08-31T08:57:02.240Z,1005.91
2022-08-31T08:58:01.239Z,1005.91
2022-08-31T08:59:01.248Z,1005.96
2022-08-31T09:00:01.226Z,1005.92
2022-08-31T09:01:01.294Z,1005.93
2022-08-31T09:02:01.308Z,1005.97
2022-08-31T09:03:01.350Z,1005.94
2022-08-31T09:04:01.233Z,1005.94
2022-08-31T09:05:01.180Z,1006.00
2022-08-31T09:06:01.159Z,1005.95
2022-08-31T09:07:01.161Z,1005.97
2022-08-31T09:08:01.109Z,1005.94
2022-08-31T09:09:01.383Z,1005.93
2022-08-31T09:10:01.153Z,1005.91
2022-08-31T09:11:01.191Z,1005.93
2022-08-31T09:12:01.078Z,1005.94
2022-08-31T09:13:01.078Z,1005.94
2022-08-31T09:14:01.055Z,1005.93
2022-08-31T09:15:01.044Z,1005.95
2022-08-31T09:16:01.111Z,1005.94
2022-08-31T09:17:01.082Z,1005.96
2022-08-31T09:18:00.976Z,1005.97
2022-08-31T09:19:00.962Z,1005.97
2022-08-31T09:20:00.975Z,1005.97
2022-08-31T09:21:00.929Z,1005.93
2022-08-31T09:22:00.939Z,1005.94
2022-08-31T09:23:00.927Z,1005.89
2022-08-31T09:24:00.907Z,1005.88
2022-08-31T09:25:00.916Z,1005.91
2022-08-31T09:26:05.002Z,1005.87
2022-08-31T09:27:01.932Z,1005.88
2022-08-31T09:28:00.855Z,1005.87
2022-08-31T09:29:00.889Z,1005.85
2022-08-31T09:30:00.924Z,1005.84
2022-08-31T09:31:00.875Z,1005.84
2022-08-31T09:32:05.970Z,1005.79
2022-08-31T09:33:01.840Z,1005.84
2022-08-31T09:34:00.800Z,1005.77
2022-08-31T09:35:00.783Z,1005.76
2022-08-31T09:36:00.793Z,1005.73
2022-08-31T09:37:00.751Z,1005.73
2022-08-31T09:38:00.773Z,1005.78
2022-08-31T09:39:00.763Z,1005.75
2022-08-31T09:40:04.405Z,1005.74
2022-08-31T09:41:01.793Z,1005.74
2022-08-31T09:42:00.738Z,1005.71
2022-08-31T09:43:00.836Z,1005.72
2022-08-31T09:44:00.704Z,1005.73
2022-08-31T09:45:00.704Z,1005.71
2022-08-31T09:46:00.760Z,1005.75
2022-08-31T09:47:00.665Z,1005.75
2022-08-31T09:48:00.775Z,1005.76
2022-08-31T09:49:00.676Z,1005.74
2022-08-31T09:50:00.666Z,1005.78
2022-08-31T09:51:01.376Z,1005.76
2022-08-31T09:52:00.671Z,1005.77
2022-08-31T09:53:00.598Z,1005.77
2022-08-31T09:54:00.587Z,1005.80
2022-08-31T09:55:00.638Z,1005.76
2022-08-31T09:56:00.579Z,1005.78
2022-08-31T09:57:00.569Z,1005.78
2022-08-31T09:58:00.520Z,1005.75
2022-08-31T09:59:00.517Z,1005.74
2022-08-31T10:00:00.558Z,1005.76
2022-08-31T10:01:01.349Z,1005.75
2022-08-31T10:02:00.481Z,1005.78
2022-08-31T10:03:06.451Z,1005.77
2022-08-31T10:04:00.549Z,1005.81
2022-08-31T10:05:00.489Z,1005.77
2022-08-31T10:06:01.902Z,1005.77
2022-08-31T10:07:00.432Z,1005.80
2022-08-31T10:08:00.432Z,1005.87
2022-08-31T10:09:00.408Z,1005.76
2022-08-31T10:10:00.663Z,1005.72
2022-08-31T10:11:00.363Z,1005.76
2022-08-31T10:12:00.385Z,1005.71
2022-08-31T10:13:00.414Z,1005.71
2022-08-31T10:14:00.358Z,1005.67
2022-08-31T10:15:00.725Z,1005.68
2022-08-31T10:16:00.387Z,1005.68
2022-08-31T10:17:00.311Z,1005.74
2022-08-31T10:18:01.080Z,1005.69
2022-08-31T10:19:00.299Z,1005.69
2022-08-31T10:20:00.316Z,1005.76
2022-08-31T10:21:00.307Z,1005.77
2022-08-31T10:22:00.296Z,1005.71
2022-08-31T10:23:00.283Z,1005.73
2022-08-31T10:24:00.328Z,1005.78
2022-08-31T10:25:00.310Z,1005.69
2022-08-31T10:26:00.259Z,1005.69
2022-08-31T10:27:00.519Z,1005.76
2022-08-31T10:28:00.324Z,1005.70
2022-08-31T10:29:00.203Z,1005.74
2022-08-31T10:30:00.223Z,1005.68
2022-08-31T10:31:00.257Z,1005.73
2022-08-31T10:32:00.333Z,1005.73
2022-08-31T10:33:00.118Z,1005.74
2022-08-31T10:34:00.168Z,1005.68
2022-08-31T10:35:00.449Z,1005.69
2022-08-31T10:36:00.994Z,1005.68
2022-08-31T10:37:00.794Z,1005.72
2022-08-31T10:38:00.837Z,1005.79
2022-08-31T10:39:00.811Z,1005.63
2022-08-31T10:40:00.203Z,1005.64
2022-08-31T10:41:00.026Z,1005.64
2022-08-31T10:42:00.035Z,1005.67
2022-08-31T10:42:59.994Z,1005.65
2022-08-31T10:44:00.776Z,1005.74
2022-08-31T10:44:59.998Z,1005.65
2022-08-31T10:46:01.209Z,1005.65
2022-08-31T10:47:00.027Z,1005.66
2022-08-31T10:47:59.967Z,1005.68
2022-08-31T10:48:59.959Z,1005.58
2022-08-31T10:50:00.669Z,1005.66
2022-08-31T10:51:01.449Z,1005.66
2022-08-31T10:52:00.101Z,1005.60
2022-08-31T10:53:02.620Z,1005.59
2022-08-31T10:53:59.933Z,1005.79
2022-08-31T10:55:00.616Z,1005.63
2022-08-31T10:56:00.621Z,1005.60
2022-08-31T10:57:00.687Z,1005.54
2022-08-31T10:57:59.832Z,1005.68
2022-08-31T10:58:59.861Z,1005.65
2022-08-31T10:59:59.891Z,1005.61
2022-08-31T11:00:59.829Z,1005.63
2022-08-31T11:01:59.813Z,1005.61
2022-08-31T11:02:59.764Z,1005.58
2022-08-31T11:03:59.762Z,1005.59
2022-08-31T11:04:59.783Z,1005.63
2022-08-31T11:05:59.734Z,1005.54
2022-08-31T11:06:59.735Z,1005.51
2022-08-31T11:08:01.488Z,1005.57
2022-08-31T11:09:01.206Z,1005.62
2022-08-31T11:09:59.726Z,1005.57
2022-08-31T11:10:59.735Z,1005.57
2022-08-31T11:11:59.710Z,1005.55
2022-08-31T11:12:59.726Z,1005.57
2022-08-31T11:13:59.725Z,1005.59
2022-08-31T11:15:00.406Z,1005.56
2022-08-31T11:15:59.757Z,1005.56
2022-08-31T11:16:59.776Z,1005.54
2022-08-31T11:17:59.661Z,1005.57
2022-08-31T11:18:59.628Z,1005.56
2022-08-31T11:20:00.349Z,1005.53
2022-08-31T11:20:59.600Z,1005.53
2022-08-31T11:21:59.699Z,1005.60
2022-08-31T11:23:00.349Z,1005.52
2022-08-31T11:23:59.707Z,1005.52
2022-08-31T11:25:00.295Z,1005.49
2022-08-31T11:25:59.572Z,1005.58
2022-08-31T11:26:59.556Z,1005.53
2022-08-31T11:27:59.513Z,1005.56
2022-08-31T11:28:59.541Z,1005.53
2022-08-31T11:29:59.554Z,1005.52
2022-08-31T11:30:59.555Z,1005.47
2022-08-31T11:31:59.463Z,1005.44
2022-08-31T11:32:59.480Z,1005.48
2022-08-31T11:34:15.470Z,1005.45
2022-08-31T11:35:00.496Z,1005.41
2022-08-31T11:36:05.390Z,1005.41
2022-08-31T11:37:01.197Z,1005.46
2022-08-31T11:37:59.406Z,1005.43
2022-08-31T11:38:59.379Z,1005.40
2022-08-31T11:39:59.408Z,1005.45
2022-08-31T11:40:59.368Z,1005.40
2022-08-31T11:41:59.348Z,1005.38
2022-08-31T11:42:59.369Z,1005.37
2022-08-31T11:43:59.329Z,1005.54
2022-08-31T11:44:59.338Z,1005.37
2022-08-31T11:45:59.781Z,1005.35
2022-08-31T11:46:59.279Z,1005.36
2022-08-31T11:47:59.263Z,1005.38
2022-08-31T11:48:59.255Z,1005.40
2022-08-31T11:49:59.981Z,1005.41
2022-08-31T11:50:59.990Z,1005.39
2022-08-31T11:51:59.235Z,1005.43
2022-08-31T11:52:59.236Z,1005.38
2022-08-31T11:53:59.236Z,1005.36
2022-08-31T11:54:59.938Z,1005.31
2022-08-31T11:55:59.239Z,1005.28
2022-08-31T11:56:59.181Z,1005.34
2022-08-31T11:57:59.184Z,1005.31
2022-08-31T11:58:59.204Z,1005.32
2022-08-31T11:59:59.194Z,1005.34
2022-08-31T12:00:59.208Z,1005.34
2022-08-31T12:01:59.094Z,1005.33
2022-08-31T12:02:59.145Z,1005.32
2022-08-31T12:03:59.095Z,1005.33
2022-08-31T12:04:59.906Z,1005.39
2022-08-31T12:05:59.866Z,1005.38
2022-08-31T12:06:59.058Z,1005.35